Weather at Amsterdam Airport Schiphol

Public forecast

Using degrees Celsius for public forecast. Weather courtesy of forecast.io.

Current aviation weather report (METAR) for Amsterdam Airport Schiphol

Retrieved 2020/11/28 18:25 UTC (32 minutes ago):

EHAM 281825Z 08009KT 0800 R18C/1800N R27/1700N R18R/1400U R06/1200N FG VV001 04/04 Q1022 NOSIG

Aviation forecast (TAF) for Amsterdam Airport Schiphol

Retrieved 2020/11/28 18:27 UTC (30 minutes ago):

TAF TAF EHAM 281710Z 2818/2924 06007KT 0800 FG OVC000 PROB30 TEMPO 2818/2820 0400 BECMG 2818/2821 2000 OVC002 BECMG 2821/2824 4000 OVC004 BECMG 2907/2910 09005KT 6000 NSW SCT010 BECMG 2910/2913 CAVOK PROB30 2920/2924 VRB03KT 7000